Strona główna
METAR-TAF:

METAR-TAF

Lotnisko :

Port lotniczy Kristianstad

Kristianstad, Szwecja

Szerokość geograficzna: 55-55N, Długość geograficzna: 014-05E, wysokość: 23 m

Aktualna obserwacja pogody

Raport powstał 34 minut temu, godzina 06:50 UTC
Wiatr 3 kt od północno-północny zachód, zmienny między zachodnio-północny zachód i północny wschód
Temperatura 18°C
Wilgotność 56%
Ciśnienie 1022 hPa
Widzialność 10 km lub więcej
Brak chmur poniżej 1500 m i brak chmur cumulonimbus

METAR: ESMK 230650Z 34003KT 300V040 CAVOK 18/09 Q1022

czas: 09:24 (07:24 UTC)

Prognoza

Raport powstał 2 godziny i 27 minut temu, godzina 04:57 UTC
Prognoza ważna od 23 godzina 06 UTC do 23 godzina 15 UTC
Wiatr 5 kt z kierunków zmiennych
Widzialność 10 km lub więcej
Brak chmur poniżej 1500 m i brak chmur cumulonimbus

TAF: ESMK 230457Z 2306/2315 VRB05KT CAVOK

Obserwacja i prognoza pogody dla ponad 4000 lotnisk (raport METAR i TAF).

Dostępne stacje oznaczono żółtymi i czerwonymi punktami na mapie.

Najedź kursorem aby zobaczyć nazwę stacji.

Kliknij aby zobaczyć obserwacje i prognozy pogody.

Aby zmienić mapę: kliknij na zielony przycisk z czarnym krzyżykiem, aby powiększyć; na zielony przycisk z myślnikiem, aby pomniejszyć; na zielone strzałki, aby przejść do map sąsiednich.


METAR-TAF: